createdAt,value
2017-09-06T00:00:29.011Z,58.89
2017-09-06T00:01:37.989Z,58.8
2017-09-06T00:02:47.276Z,58.8
2017-09-06T00:03:57.190Z,58.5
2017-09-06T00:05:06.171Z,58.8
2017-09-06T00:06:14.836Z,58.7
2017-09-06T00:07:23.500Z,58.7
2017-09-06T00:08:32.782Z,58.5
2017-09-06T00:09:42.068Z,58.6
2017-09-06T00:10:51.037Z,58.76
2017-09-06T00:12:00.333Z,58.89
2017-09-06T00:13:09.941Z,58.89
2017-09-06T00:14:18.934Z,58.98
2017-09-06T00:15:27.590Z,58.98
2017-09-06T00:16:36.553Z,58.8
2017-09-06T00:17:45.839Z,58.8
2017-09-06T00:18:54.493Z,58.89
2017-09-06T00:20:03.151Z,58.89
2017-09-06T00:21:12.126Z,58.8
2017-09-06T00:22:21.083Z,58.8
2017-09-06T00:23:30.059Z,58.8
2017-09-06T00:24:38.745Z,58.89
2017-09-06T00:25:47.717Z,58.89
2017-09-06T00:26:57.016Z,58.8
2017-09-06T00:28:06.611Z,59.08
2017-09-06T00:29:15.271Z,58.98
2017-09-06T00:30:23.940Z,59.08
2017-09-06T00:31:32.900Z,58.98
2017-09-06T00:32:41.874Z,59.08
2017-09-06T00:33:50.839Z,58.89
2017-09-06T00:34:59.812Z,58.8
2017-09-06T00:36:09.089Z,58.5
2017-09-06T00:37:18.387Z,58.98
2017-09-06T00:38:27.054Z,58.6
2017-09-06T00:39:35.713Z,58.6
2017-09-06T00:40:45.327Z,59.08
2017-09-06T00:41:54.305Z,58.89
2017-09-06T00:43:03.906Z,58.8
2017-09-06T00:44:12.896Z,58.89
2017-09-06T00:45:21.855Z,58.6
2017-09-06T00:46:31.467Z,58.7
2017-09-06T00:47:41.060Z,58.7
2017-09-06T00:48:50.057Z,58.6
2017-09-06T00:49:59.025Z,58.6
2017-09-06T00:51:08.319Z,58.98
2017-09-06T00:52:17.313Z,58.8
2017-09-06T00:53:26.953Z,58.8
2017-09-06T00:54:35.929Z,59.08
2017-09-06T00:55:44.902Z,58.7
2017-09-06T00:56:53.878Z,58.31
2017-09-06T00:58:02.854Z,58.31
2017-09-06T00:59:11.822Z,58.7
2017-09-06T01:00:20.792Z,58.31
2017-09-06T01:01:30.710Z,58.4
2017-09-06T01:02:39.684Z,58.31
2017-09-06T01:03:48.651Z,58.5
2017-09-06T01:04:57.289Z,58.6
2017-09-06T01:06:06.635Z,58.8
2017-09-06T01:07:15.287Z,58.8
2017-09-06T01:08:24.557Z,58.5
2017-09-06T01:09:33.841Z,58.5
2017-09-06T01:10:43.125Z,58.4
2017-09-06T01:11:51.809Z,58.4
2017-09-06T01:13:01.403Z,58.21
2017-09-06T01:14:10.377Z,58.5
2017-09-06T01:15:19.354Z,58.4
2017-09-06T01:16:28.021Z,58.4
2017-09-06T01:17:36.990Z,58.5
2017-09-06T01:18:45.974Z,58.8
2017-09-06T01:19:55.586Z,58.31
2017-09-06T01:21:04.556Z,58.31
2017-09-06T01:22:14.182Z,58.98
2017-09-06T01:23:23.778Z,58.31
2017-09-06T01:24:32.761Z,58.31
2017-09-06T01:25:42.045Z,58.21
2017-09-06T01:26:51.007Z,58.4
2017-09-06T01:27:59.977Z,58.31
2017-09-06T01:29:10.198Z,58.5
2017-09-06T01:30:18.855Z,58.31
2017-09-06T01:31:27.825Z,58.31
2017-09-06T01:32:36.467Z,58.31
2017-09-06T01:33:45.431Z,58.4
2017-09-06T01:34:54.403Z,58.31
2017-09-06T01:36:03.705Z,58.6
2017-09-06T01:37:12.357Z,58.31
2017-09-06T01:38:21.026Z,58.31
2017-09-06T01:39:29.707Z,58.5
2017-09-06T01:40:39.051Z,58.5
2017-09-06T01:41:47.701Z,58.5
2017-09-06T01:42:56.696Z,58.6
2017-09-06T01:44:05.679Z,58.4
2017-09-06T01:45:15.299Z,58.31
2017-09-06T01:46:24.274Z,58.31
2017-09-06T01:47:33.238Z,58.4
2017-09-06T01:48:42.520Z,58.4
2017-09-06T01:49:51.799Z,58.98
2017-09-06T01:51:00.764Z,58.98
2017-09-06T01:52:09.734Z,58.5
2017-09-06T01:53:18.390Z,58.7
2017-09-06T01:54:27.687Z,58.7
2017-09-06T01:55:37.285Z,58.7
2017-09-06T01:56:46.572Z,58.98
2017-09-06T01:57:55.540Z,58.57
2017-09-06T01:59:04.200Z,58.6
2017-09-06T02:00:13.167Z,58.89
2017-09-06T02:01:22.453Z,58.76
2017-09-06T02:02:31.102Z,58.8
2017-09-06T02:03:39.765Z,58.98
2017-09-06T02:04:48.424Z,58.4
2017-09-06T02:05:58.032Z,58.31
2017-09-06T02:07:07.325Z,58.31
2017-09-06T02:08:15.987Z,58.98
2017-09-06T02:09:24.644Z,58.89
2017-09-06T02:10:33.642Z,59.08
2017-09-06T02:11:42.615Z,59.08
2017-09-06T02:12:51.580Z,58.7
2017-09-06T02:14:00.550Z,58.5
2017-09-06T02:15:09.837Z,58.76
2017-09-06T02:16:19.115Z,58.57
2017-09-06T02:17:28.081Z,58.67
2017-09-06T02:18:36.738Z,58.57
2017-09-06T02:19:45.708Z,58.76
2017-09-06T02:20:55.002Z,58.57
2017-09-06T02:22:03.968Z,58.86
2017-09-06T02:23:13.257Z,58.76
2017-09-06T02:24:22.857Z,58.76
2017-09-06T02:25:31.826Z,58.47
2017-09-06T02:26:41.115Z,58.47
2017-09-06T02:27:50.410Z,58.95
2017-09-06T02:28:59.700Z,58.57
2017-09-06T02:30:08.358Z,58.57
2017-09-06T02:31:17.015Z,58.76
2017-09-06T02:32:25.673Z,58.67
2017-09-06T02:33:34.636Z,58.67
2017-09-06T02:34:44.249Z,58.67
2017-09-06T02:35:53.091Z,58.57
2017-09-06T02:37:02.061Z,58.95
2017-09-06T02:38:11.024Z,58.95
2017-09-06T02:39:19.992Z,58.57
2017-09-06T02:40:29.277Z,58.67
2017-09-06T02:41:38.616Z,58.67
2017-09-06T02:42:47.572Z,58.76
2017-09-06T02:43:56.547Z,58.76
2017-09-06T02:45:05.847Z,58.76
2017-09-06T02:46:15.787Z,58.95
2017-09-06T02:47:24.753Z,58.76
2017-09-06T02:48:33.430Z,58.67
2017-09-06T02:49:42.720Z,58.76
2017-09-06T02:50:51.712Z,58.67
2017-09-06T02:52:01.020Z,58.47
2017-09-06T02:53:10.294Z,58.67
2017-09-06T02:54:19.262Z,58.67
2017-09-06T02:55:28.240Z,58.57
2017-09-06T02:56:37.204Z,58.57
2017-09-06T02:57:46.187Z,58.57
2017-09-06T02:58:55.795Z,58.67
2017-09-06T03:00:04.758Z,58.57
2017-09-06T03:01:13.721Z,58.67
2017-09-06T03:02:22.686Z,58.57
2017-09-06T03:03:31.337Z,58.76
2017-09-06T03:04:40.965Z,58.86
2017-09-06T03:05:50.264Z,58.86
2017-09-06T03:06:59.240Z,59.05
2017-09-06T03:08:08.284Z,58.86
2017-09-06T03:09:16.933Z,58.37
2017-09-06T03:10:25.911Z,58.28
2017-09-06T03:11:35.509Z,58.37
2017-09-06T03:12:44.484Z,58.37
2017-09-06T03:13:53.771Z,58.47
2017-09-06T03:15:02.751Z,58.47
2017-09-06T03:16:12.040Z,58.76
2017-09-06T03:17:21.642Z,58.47
2017-09-06T03:18:30.923Z,58.47
2017-09-06T03:19:40.513Z,58.47
2017-09-06T03:20:50.112Z,58.47
2017-09-06T03:21:59.397Z,58.47
2017-09-06T03:23:08.380Z,58.47
2017-09-06T03:24:17.958Z,58.5
2017-09-06T03:25:27.553Z,58.57
2017-09-06T03:26:36.195Z,58.5
2017-09-06T03:27:45.317Z,58.6
2017-09-06T03:28:54.352Z,58.57
2017-09-06T03:30:03.319Z,58.57
2017-09-06T03:31:13.255Z,58.57
2017-09-06T03:32:21.908Z,58.6
2017-09-06T03:33:30.880Z,58.5
2017-09-06T03:34:39.850Z,58.4
2017-09-06T03:35:48.813Z,58.37
2017-09-06T03:36:58.105Z,58.47
2017-09-06T03:38:07.072Z,58.4
2017-09-06T03:39:16.203Z,58.37
2017-09-06T03:40:25.487Z,58.47
2017-09-06T03:41:34.765Z,58.86
2017-09-06T03:42:44.051Z,58.86
2017-09-06T03:43:53.324Z,58.95
2017-09-06T03:45:03.232Z,58.57
2017-09-06T03:46:12.826Z,58.57
2017-09-06T03:47:22.418Z,58.57
2017-09-06T03:48:31.079Z,58.57
2017-09-06T03:49:40.042Z,58.57
2017-09-06T03:50:48.694Z,58.86
2017-09-06T03:51:57.721Z,58.86
2017-09-06T03:53:06.989Z,58.76
2017-09-06T03:54:15.970Z,59.05
2017-09-06T03:55:24.615Z,58.86
2017-09-06T03:56:33.897Z,59.05
2017-09-06T03:57:42.547Z,58.86
2017-09-06T03:58:51.539Z,58.76
2017-09-06T04:00:00.203Z,58.76
2017-09-06T04:01:09.480Z,58.86
2017-09-06T04:02:18.138Z,58.76
2017-09-06T04:03:28.066Z,59.53
2017-09-06T04:04:36.724Z,59.53
2017-09-06T04:05:45.997Z,59.63
2017-09-06T04:06:55.286Z,59.41
2017-09-06T04:08:04.296Z,59.31
2017-09-06T04:09:13.604Z,59.31
2017-09-06T04:10:22.262Z,59.41
2017-09-06T04:11:31.541Z,59.41
2017-09-06T04:12:40.833Z,59.6
2017-09-06T04:13:50.130Z,59.51
2017-09-06T04:14:59.095Z,59.99
2017-09-06T04:16:08.377Z,59.89
2017-09-06T04:17:17.651Z,59.8
2017-09-06T04:18:26.633Z,59.89
2017-09-06T04:19:35.600Z,60.38
2017-09-06T04:20:44.579Z,60.09
2017-09-06T04:21:53.902Z,60.44
2017-09-06T04:23:03.493Z,60.38
2017-09-06T04:24:12.781Z,60.44
2017-09-06T04:25:21.745Z,60.44
2017-09-06T04:26:31.360Z,60.64
2017-09-06T04:27:40.635Z,60.73
2017-09-06T04:28:49.604Z,60.64
2017-09-06T04:29:58.564Z,60.44
2017-09-06T04:31:07.220Z,60.35
2017-09-06T04:32:16.499Z,60.54
2017-09-06T04:33:25.457Z,60.73
2017-09-06T04:34:34.112Z,60.54
2017-09-06T04:35:43.069Z,60.73
2017-09-06T04:36:52.351Z,60.83
2017-09-06T04:38:01.643Z,60.73
2017-09-06T04:39:10.610Z,61.02
2017-09-06T04:40:19.580Z,61.12
2017-09-06T04:41:28.859Z,61.12
2017-09-06T04:42:37.815Z,61.22
2017-09-06T04:43:47.108Z,61.12
2017-09-06T04:44:55.766Z,61.6
2017-09-06T04:46:05.583Z,61.77
2017-09-06T04:47:14.855Z,61.67
2017-09-06T04:48:24.143Z,61.57
2017-09-06T04:49:33.437Z,61.57
2017-09-06T04:50:42.395Z,61.57
2017-09-06T04:51:51.373Z,61.67
2017-09-06T04:53:00.661Z,61.57
2017-09-06T04:54:09.623Z,61.41
2017-09-06T04:55:18.904Z,61.28
2017-09-06T04:56:28.181Z,61.09
2017-09-06T04:57:36.829Z,61.09
2017-09-06T04:58:45.788Z,61.28
2017-09-06T04:59:54.443Z,61.47
2017-09-06T05:01:03.411Z,61.57
2017-09-06T05:02:12.700Z,61.57
2017-09-06T05:03:21.354Z,61.77
2017-09-06T05:04:30.636Z,61.77
2017-09-06T05:05:39.287Z,62.05
2017-09-06T05:06:48.276Z,61.67
2017-09-06T05:07:56.930Z,61.57
2017-09-06T05:09:05.905Z,61.47
2017-09-06T05:10:15.506Z,61.57
2017-09-06T05:11:24.166Z,61.28
2017-09-06T05:12:33.163Z,61.38
2017-09-06T05:13:42.146Z,61.47
2017-09-06T05:14:51.427Z,61.67
2017-09-06T05:16:00.095Z,61.38
2017-09-06T05:17:09.594Z,61.19
2017-09-06T05:18:18.792Z,61.6
2017-09-06T05:19:27.768Z,61.31
2017-09-06T05:20:36.733Z,61.51
2017-09-06T05:21:46.019Z,61.67
2017-09-06T05:22:54.990Z,61.67
2017-09-06T05:24:04.581Z,61.51
2017-09-06T05:25:13.857Z,61.67
2017-09-06T05:26:23.154Z,61.67
2017-09-06T05:27:31.830Z,61.47
2017-09-06T05:28:40.790Z,61.31
2017-09-06T05:29:49.458Z,61.7
2017-09-06T05:30:59.058Z,61.41
2017-09-06T05:32:08.732Z,61.28
2017-09-06T05:33:17.709Z,61.22
2017-09-06T05:34:26.685Z,61.19
2017-09-06T05:35:35.339Z,61.6
2017-09-06T05:36:44.642Z,61.57
2017-09-06T05:37:53.321Z,61.28
2017-09-06T05:39:02.635Z,61.67
2017-09-06T05:40:11.964Z,61.67
2017-09-06T05:41:20.953Z,61.28
2017-09-06T05:42:30.245Z,61.47
2017-09-06T05:43:39.248Z,61.47
2017-09-06T05:44:48.532Z,61.57
2017-09-06T05:45:57.498Z,61.7
2017-09-06T05:47:06.837Z,61.22
2017-09-06T05:48:16.123Z,60.93
2017-09-06T05:49:24.804Z,60.64
2017-09-06T05:50:33.470Z,60.64
2017-09-06T05:51:42.872Z,60.64
2017-09-06T05:52:51.568Z,60.44
2017-09-06T05:54:01.182Z,60.35
2017-09-06T05:55:10.195Z,60.47
2017-09-06T05:56:19.191Z,60.18
2017-09-06T05:57:28.161Z,60.09
2017-09-06T05:58:37.468Z,59.89
2017-09-06T05:59:46.486Z,59.51
2017-09-06T06:00:55.784Z,59.51
2017-09-06T06:02:05.092Z,59.22
2017-09-06T06:03:13.755Z,59.41
2017-09-06T06:04:22.744Z,59.31
2017-09-06T06:05:32.061Z,59.51
2017-09-06T06:06:41.031Z,59.6
2017-09-06T06:07:50.944Z,59.53
2017-09-06T06:08:59.928Z,59.41
2017-09-06T06:10:08.607Z,59.53
2017-09-06T06:11:17.897Z,59.25
2017-09-06T06:12:27.179Z,58.95
2017-09-06T06:13:36.483Z,58.95
2017-09-06T06:14:45.362Z,59.05
2017-09-06T06:15:54.693Z,58.86
2017-09-06T06:17:04.082Z,58.86
2017-09-06T06:18:13.044Z,58.57
2017-09-06T06:19:22.017Z,58.57
2017-09-06T06:20:31.926Z,58.7
2017-09-06T06:21:40.890Z,58.6
2017-09-06T06:22:49.871Z,58.89
2017-09-06T06:23:59.162Z,58.89
2017-09-06T06:25:08.145Z,59.08
2017-09-06T06:26:17.751Z,58.5
2017-09-06T06:27:26.721Z,58.31
2017-09-06T06:28:35.709Z,58.5
2017-09-06T06:29:45.018Z,58.8
2017-09-06T06:30:53.665Z,58.5
2017-09-06T06:32:02.634Z,58.6
2017-09-06T06:33:11.644Z,58.6
2017-09-06T06:34:20.291Z,58.5
2017-09-06T06:35:28.935Z,58.31
2017-09-06T06:36:37.587Z,58.6
2017-09-06T06:37:46.240Z,58.4
2017-09-06T06:38:56.156Z,58.7
2017-09-06T06:40:05.113Z,58.53
2017-09-06T06:41:14.402Z,58.4
2017-09-06T06:42:23.367Z,58.4
2017-09-06T06:43:32.652Z,58.6
2017-09-06T06:44:41.611Z,58.7
2017-09-06T06:45:50.891Z,58.7
2017-09-06T06:47:00.487Z,58.53
2017-09-06T06:48:09.459Z,58.63
2017-09-06T06:49:18.420Z,58.72
2017-09-06T06:50:28.036Z,58.72
2017-09-06T06:51:37.335Z,58.72
2017-09-06T06:52:46.352Z,58.44
2017-09-06T06:53:55.310Z,58.44
2017-09-06T06:55:03.980Z,58.53
2017-09-06T06:56:12.632Z,58.6
2017-09-06T06:57:21.917Z,58.4
2017-09-06T06:58:30.569Z,58.53
2017-09-06T06:59:39.233Z,58.4
2017-09-06T07:00:48.200Z,58.53
2017-09-06T07:01:56.865Z,58.53
2017-09-06T07:03:05.508Z,58.5
2017-09-06T07:04:14.794Z,58.4
2017-09-06T07:05:23.789Z,59.01
2017-09-06T07:06:32.749Z,58.82
2017-09-06T07:07:42.048Z,59.08
2017-09-06T07:08:51.029Z,59.01
2017-09-06T07:10:00.009Z,59.11
2017-09-06T07:11:09.283Z,59.01
2017-09-06T07:12:18.890Z,58.92
2017-09-06T07:13:27.890Z,58.98
2017-09-06T07:14:37.165Z,59.01
2017-09-06T07:15:46.180Z,58.98
2017-09-06T07:16:55.141Z,58.92
2017-09-06T07:18:04.419Z,58.92
2017-09-06T07:19:13.388Z,58.92
2017-09-06T07:20:22.359Z,58.92
2017-09-06T07:21:31.012Z,58.72
2017-09-06T07:22:39.989Z,58.82
2017-09-06T07:23:48.644Z,58.89
2017-09-06T07:24:57.937Z,58.92
2017-09-06T07:26:06.903Z,59.01
2017-09-06T07:27:15.874Z,59.01
2017-09-06T07:28:24.856Z,59.01
2017-09-06T07:29:34.200Z,59.01
2017-09-06T07:30:43.177Z,59.01
2017-09-06T07:31:52.156Z,58.82
2017-09-06T07:33:01.127Z,58.82
2017-09-06T07:34:10.411Z,58.63
2017-09-06T07:35:19.997Z,58.82
2017-09-06T07:36:28.732Z,58.72
2017-09-06T07:37:38.083Z,58.72
2017-09-06T07:38:47.051Z,58.92
2017-09-06T07:39:56.030Z,59.01
2017-09-06T07:41:04.996Z,58.82
2017-09-06T07:42:14.346Z,58.63
2017-09-06T07:43:23.072Z,58.82
2017-09-06T07:44:32.038Z,58.63
2017-09-06T07:45:41.006Z,59.01
2017-09-06T07:46:49.978Z,59.01
2017-09-06T07:47:59.581Z,58.63
2017-09-06T07:49:09.519Z,59.01
2017-09-06T07:50:18.169Z,58.63
2017-09-06T07:51:27.147Z,58.63
2017-09-06T07:52:36.125Z,58.63
2017-09-06T07:53:45.096Z,58.82
2017-09-06T07:54:54.391Z,59.01
2017-09-06T07:56:03.677Z,58.82
2017-09-06T07:57:12.659Z,58.92
2017-09-06T07:58:21.641Z,58.72
2017-09-06T07:59:30.936Z,58.92
2017-09-06T08:00:40.543Z,58.92
2017-09-06T08:01:49.522Z,59.01
2017-09-06T08:02:58.805Z,58.72
2017-09-06T08:04:07.762Z,58.34
2017-09-06T08:05:16.734Z,58.53
2017-09-06T08:06:26.021Z,58.53
2017-09-06T08:07:35.010Z,58.53
2017-09-06T08:08:43.673Z,58.53
2017-09-06T08:09:53.319Z,58.53
2017-09-06T08:11:02.920Z,58.56
2017-09-06T08:12:12.200Z,58.34
2017-09-06T08:13:20.854Z,58.63
2017-09-06T08:14:30.133Z,58.53
2017-09-06T08:15:38.780Z,58.53
2017-09-06T08:16:48.105Z,58.34
2017-09-06T08:17:57.092Z,58.34
2017-09-06T08:19:06.057Z,59.01
2017-09-06T08:20:15.072Z,58.92
2017-09-06T08:21:24.325Z,59.01
2017-09-06T08:22:33.614Z,58.72
2017-09-06T08:23:42.897Z,58.82
2017-09-06T08:24:52.810Z,58.82
2017-09-06T08:26:01.799Z,58.63
2017-09-06T08:27:10.785Z,58.82
2017-09-06T08:28:19.771Z,58.63
2017-09-06T08:29:29.054Z,58.63
2017-09-06T08:30:38.022Z,58.72
2017-09-06T08:31:47.306Z,58.72
2017-09-06T08:32:56.597Z,58.44
2017-09-06T08:34:05.259Z,58.63
2017-09-06T08:35:14.585Z,58.63
2017-09-06T08:36:23.553Z,58.92
2017-09-06T08:37:32.210Z,58.34
2017-09-06T08:38:40.864Z,58.53
2017-09-06T08:39:49.846Z,58.63
2017-09-06T08:40:58.816Z,58.44
2017-09-06T08:42:07.473Z,58.75
2017-09-06T08:43:16.479Z,58.75
2017-09-06T08:44:25.137Z,57.98
2017-09-06T08:45:34.767Z,57.79
2017-09-06T08:46:43.744Z,57.98
2017-09-06T08:47:52.710Z,57.88
2017-09-06T08:49:01.702Z,57.88
2017-09-06T08:50:10.666Z,57.79
2017-09-06T08:51:19.961Z,57.98
2017-09-06T08:52:28.626Z,58.17
2017-09-06T08:53:37.336Z,57.88
2017-09-06T08:54:45.996Z,57.79
2017-09-06T08:55:55.285Z,57.98
2017-09-06T08:57:04.596Z,57.91
2017-09-06T08:58:13.576Z,58.01
2017-09-06T08:59:22.577Z,57.79
2017-09-06T09:00:31.249Z,58.17
2017-09-06T09:01:39.925Z,58.07
2017-09-06T09:02:49.526Z,58.07
2017-09-06T09:03:58.198Z,58.07
2017-09-06T09:05:07.187Z,58.17
2017-09-06T09:06:16.475Z,58.27
2017-09-06T09:07:25.460Z,58.17
2017-09-06T09:08:35.387Z,57.88
2017-09-06T09:09:45.040Z,57.69
2017-09-06T09:10:54.010Z,57.88
2017-09-06T09:12:02.975Z,58.17
2017-09-06T09:13:12.272Z,58.47
2017-09-06T09:14:21.863Z,58.07
2017-09-06T09:15:30.564Z,58.65
2017-09-06T09:16:39.540Z,58.56
2017-09-06T09:17:48.511Z,58.27
2017-09-06T09:18:57.174Z,58.56
2017-09-06T09:20:06.140Z,58.47
2017-09-06T09:21:15.461Z,58.47
2017-09-06T09:22:24.428Z,58.47
2017-09-06T09:23:33.721Z,58.56
2017-09-06T09:24:42.696Z,58.37
2017-09-06T09:25:51.706Z,58.65
2017-09-06T09:27:00.374Z,58.65
2017-09-06T09:28:09.980Z,58.56
2017-09-06T09:29:18.640Z,58.17
2017-09-06T09:30:27.916Z,58.56
2017-09-06T09:31:37.209Z,58.27
2017-09-06T09:32:46.495Z,58.65
2017-09-06T09:33:55.478Z,58.47
2017-09-06T09:35:05.087Z,58.56
2017-09-06T09:36:14.386Z,58.56
2017-09-06T09:37:23.055Z,58.56
2017-09-06T09:38:32.687Z,58.56
2017-09-06T09:39:42.321Z,58.65
2017-09-06T09:40:51.296Z,58.65
2017-09-06T09:42:00.273Z,58.56
2017-09-06T09:43:09.256Z,58.53
2017-09-06T09:44:17.918Z,58.47
2017-09-06T09:45:27.221Z,58.56
2017-09-06T09:46:35.883Z,58.53
2017-09-06T09:47:45.173Z,58.47
2017-09-06T09:48:54.158Z,58.65
2017-09-06T09:50:03.133Z,58.56
2017-09-06T09:51:12.126Z,58.47
2017-09-06T09:52:20.789Z,58.44
2017-09-06T09:53:30.413Z,58.37
2017-09-06T09:54:39.418Z,58.37
2017-09-06T09:55:48.038Z,58.85
2017-09-06T09:56:57.042Z,58.37
2017-09-06T09:58:06.336Z,58.85
2017-09-06T10:00:23.696Z,58.34
2017-09-06T10:01:33.311Z,58.56
2017-09-06T10:02:42.594Z,58.56
2017-09-06T10:03:51.571Z,58.56
2017-09-06T10:05:00.547Z,58.53
2017-09-06T10:06:09.870Z,58.56
2017-09-06T10:07:19.157Z,58.65
2017-09-06T10:08:29.109Z,58.34
2017-09-06T10:09:37.760Z,58.53
2017-09-06T10:10:47.037Z,58.75
2017-09-06T10:11:56.011Z,58.37
2017-09-06T10:13:05.316Z,58.37
2017-09-06T10:14:14.598Z,58.65
2017-09-06T10:15:24.211Z,58.65
2017-09-06T10:16:33.184Z,58.75
2017-09-06T10:17:42.493Z,58.65
2017-09-06T10:18:51.478Z,58.75
2017-09-06T10:20:00.136Z,58.85
2017-09-06T10:21:09.178Z,57.98
2017-09-06T10:22:19.115Z,58.37
2017-09-06T10:23:27.792Z,58.27
2017-09-06T10:24:36.769Z,57.98
2017-09-06T10:25:45.738Z,57.98
2017-09-06T10:26:55.011Z,58.17
2017-09-06T10:28:03.983Z,58.07
2017-09-06T10:29:12.635Z,57.98
2017-09-06T10:30:21.603Z,57.88
2017-09-06T10:31:30.917Z,57.98
2017-09-06T10:32:40.203Z,58.07
2017-09-06T10:33:49.823Z,57.79
2017-09-06T10:34:59.739Z,57.98
2017-09-06T10:36:08.394Z,57.88
2017-09-06T10:37:17.048Z,57.98
2017-09-06T10:38:26.010Z,58.01
2017-09-06T10:39:35.600Z,58.07
2017-09-06T10:40:44.592Z,58.07
2017-09-06T10:41:53.575Z,58.17
2017-09-06T10:43:02.860Z,57.98
2017-09-06T10:44:12.152Z,58.17
2017-09-06T10:45:21.451Z,57.98
2017-09-06T10:46:30.737Z,58.07
2017-09-06T10:47:39.424Z,58.17
2017-09-06T10:48:48.399Z,58.17
2017-09-06T10:49:57.133Z,58.27
2017-09-06T10:51:06.113Z,58.07
2017-09-06T10:52:15.102Z,57.79
2017-09-06T10:53:24.398Z,57.79
2017-09-06T10:54:33.999Z,57.98
2017-09-06T10:55:42.656Z,58.17
2017-09-06T10:56:51.647Z,57.98
2017-09-06T10:58:00.935Z,57.88
2017-09-06T10:59:09.590Z,57.79
2017-09-06T11:00:18.248Z,57.98
2017-09-06T11:01:27.225Z,57.79
2017-09-06T11:02:36.210Z,57.79
2017-09-06T11:03:44.875Z,57.88
2017-09-06T11:04:53.843Z,57.88
2017-09-06T11:06:03.122Z,57.79
2017-09-06T11:07:11.784Z,57.98
2017-09-06T11:08:20.753Z,57.88
2017-09-06T11:09:30.080Z,58.17
2017-09-06T11:10:39.028Z,58.37
2017-09-06T11:11:47.993Z,58.17
2017-09-06T11:12:56.657Z,58.37
2017-09-06T11:14:05.944Z,57.88
2017-09-06T11:15:14.925Z,58.01
2017-09-06T11:16:23.608Z,58.07
2017-09-06T11:17:32.907Z,57.79
2017-09-06T11:18:42.213Z,57.79
2017-09-06T11:19:51.829Z,57.98
2017-09-06T11:21:01.396Z,57.81
2017-09-06T11:22:10.364Z,58.11
2017-09-06T11:23:19.346Z,57.81
2017-09-06T11:24:28.326Z,57.71
2017-09-06T11:25:37.946Z,57.43
2017-09-06T11:26:47.247Z,57.43
2017-09-06T11:27:55.925Z,57.43
2017-09-06T11:29:04.597Z,57.33
2017-09-06T11:30:13.586Z,57.23
2017-09-06T11:31:23.404Z,57.43
2017-09-06T11:32:32.073Z,57.33
2017-09-06T11:33:41.671Z,57.43
2017-09-06T11:34:51.001Z,57.62
2017-09-06T11:35:59.974Z,57.62
2017-09-06T11:37:09.277Z,57.53
2017-09-06T11:38:18.318Z,57.62
2017-09-06T11:39:27.324Z,58.11
2017-09-06T11:40:36.292Z,58.01
2017-09-06T11:41:44.968Z,57.79
2017-09-06T11:42:54.273Z,57.79
2017-09-06T11:44:03.265Z,57.88
2017-09-06T11:45:11.927Z,57.53
2017-09-06T11:46:20.587Z,57.5
2017-09-06T11:47:29.869Z,57.81
2017-09-06T11:48:38.544Z,57.71
2017-09-06T11:49:47.515Z,57.43
2017-09-06T11:50:56.186Z,57.53
2017-09-06T11:52:04.839Z,57.62
2017-09-06T11:53:14.120Z,57.43
2017-09-06T11:54:23.410Z,57.23
2017-09-06T11:55:32.061Z,57.33
2017-09-06T11:56:41.060Z,57.53
2017-09-06T11:57:50.339Z,57.33
2017-09-06T11:58:59.636Z,57.33
2017-09-06T12:00:08.311Z,57.43
2017-09-06T12:01:17.309Z,57.43
2017-09-06T12:02:25.965Z,57.62
2017-09-06T12:03:34.988Z,57.62
2017-09-06T12:04:44.349Z,57.71
2017-09-06T12:05:53.638Z,57.53
2017-09-06T12:07:02.301Z,57.33
2017-09-06T12:08:10.949Z,57.53
2017-09-06T12:09:20.246Z,57.53
2017-09-06T12:10:29.223Z,57.43
2017-09-06T12:11:38.825Z,57.62
2017-09-06T12:12:48.119Z,57.5
2017-09-06T12:13:57.746Z,57.79
2017-09-06T12:15:06.734Z,57.69
2017-09-06T12:16:15.390Z,57.59
2017-09-06T12:17:24.363Z,57.91
2017-09-06T12:18:33.652Z,58.07
2017-09-06T12:19:42.641Z,57.53
2017-09-06T12:20:51.294Z,57.69
2017-09-06T12:22:00.263Z,57.69
2017-09-06T12:23:09.571Z,57.81
2017-09-06T12:24:18.556Z,57.79
2017-09-06T12:25:27.586Z,57.69
2017-09-06T12:26:36.233Z,57.2
2017-09-06T12:27:45.855Z,57.59
2017-09-06T12:28:54.817Z,57.43
2017-09-06T12:30:04.195Z,57.43
2017-09-06T12:31:13.482Z,57.23
2017-09-06T12:32:22.455Z,57.14
2017-09-06T12:33:31.418Z,57.14
2017-09-06T12:34:40.697Z,57.14
2017-09-06T12:35:49.361Z,57.33
2017-09-06T12:36:58.324Z,57.23
2017-09-06T12:38:06.974Z,57.23
2017-09-06T12:39:15.955Z,57.33
2017-09-06T12:40:24.611Z,57.33
2017-09-06T12:41:33.264Z,57.14
2017-09-06T12:42:42.552Z,57.33
2017-09-06T12:43:51.539Z,57.33
2017-09-06T12:45:00.827Z,57.53
2017-09-06T12:46:10.153Z,57.43
2017-09-06T12:47:19.767Z,57.33
2017-09-06T12:48:28.745Z,57.23
2017-09-06T12:49:37.703Z,57.14
2017-09-06T12:50:47.220Z,57.23
2017-09-06T12:51:56.509Z,57.04
2017-09-06T12:53:06.111Z,57.33
2017-09-06T12:54:15.412Z,57.43
2017-09-06T12:55:24.071Z,57.43
2017-09-06T12:56:33.045Z,57.43
2017-09-06T12:57:42.657Z,57.43
2017-09-06T12:58:52.264Z,57.23
2017-09-06T13:00:01.544Z,57.23
2017-09-06T13:01:11.196Z,57.23
2017-09-06T13:02:20.173Z,57.14
2017-09-06T13:03:29.485Z,57.23
2017-09-06T13:04:38.131Z,57.43
2017-09-06T13:05:47.422Z,57.33
2017-09-06T13:06:57.347Z,57.43
2017-09-06T13:08:06.310Z,57.14
2017-09-06T13:09:14.977Z,57.23
2017-09-06T13:10:23.948Z,57.43
2017-09-06T13:11:32.623Z,57.23
2017-09-06T13:12:41.591Z,57.33
2017-09-06T13:13:50.250Z,57.43
2017-09-06T13:14:59.215Z,57.23
2017-09-06T13:16:08.331Z,56.94
2017-09-06T13:17:16.990Z,57.14
2017-09-06T13:18:25.669Z,57.14
2017-09-06T13:19:34.394Z,57.33
2017-09-06T13:20:43.355Z,57.43
2017-09-06T13:21:52.338Z,57.69
2017-09-06T13:23:01.303Z,57.23
2017-09-06T13:24:09.957Z,57.3
2017-09-06T13:25:19.563Z,57.3
2017-09-06T13:26:28.854Z,57.33
2017-09-06T13:27:38.132Z,57.59
2017-09-06T13:28:47.792Z,57.62
2017-09-06T13:29:57.080Z,57.23
2017-09-06T13:31:06.364Z,57.33
2017-09-06T13:32:15.658Z,57.23
2017-09-06T13:33:24.971Z,57.23
2017-09-06T13:34:34.595Z,57.14
2017-09-06T13:35:43.890Z,57.04
2017-09-06T13:36:52.545Z,57.33
2017-09-06T13:38:01.854Z,57.43
2017-09-06T13:39:11.144Z,57.43
2017-09-06T13:40:20.439Z,57.33
2017-09-06T13:41:29.753Z,57.43
2017-09-06T13:42:38.721Z,57.33
2017-09-06T13:43:47.386Z,57.33
2017-09-06T13:44:56.676Z,57.43
2017-09-06T13:46:05.972Z,57.43
2017-09-06T13:47:15.257Z,57.43
2017-09-06T13:48:24.873Z,57.33
2017-09-06T13:49:33.850Z,57.23
2017-09-06T13:50:43.168Z,57.33
2017-09-06T13:51:52.155Z,57.14
2017-09-06T13:53:01.142Z,56.94
2017-09-06T13:54:09.813Z,56.94
2017-09-06T13:55:19.104Z,57.14
2017-09-06T13:56:28.399Z,56.56
2017-09-06T13:57:37.999Z,56.75
2017-09-06T13:58:46.672Z,56.56
2017-09-06T13:59:55.973Z,56.75
2017-09-06T14:01:05.269Z,56.94
2017-09-06T14:02:14.565Z,57.14
2017-09-06T14:03:24.175Z,56.85
2017-09-06T14:04:32.841Z,57.33
2017-09-06T14:05:42.138Z,57.23
2017-09-06T14:06:50.822Z,57.23
2017-09-06T14:08:00.115Z,57.33
2017-09-06T14:09:08.785Z,57.43
2017-09-06T14:10:17.445Z,57.33
2017-09-06T14:11:26.413Z,57.23
2017-09-06T14:12:35.706Z,57.23
2017-09-06T14:13:44.992Z,57.33
2017-09-06T14:14:54.280Z,57.43
2017-09-06T14:16:02.927Z,57.23
2017-09-06T14:17:11.906Z,57.43
2017-09-06T14:18:20.888Z,57.53
2017-09-06T14:19:29.856Z,57.14
2017-09-06T14:20:38.823Z,57.43
2017-09-06T14:21:47.790Z,57.53
2017-09-06T14:22:56.761Z,57.43
2017-09-06T14:24:05.434Z,57.43
2017-09-06T14:25:14.420Z,57.43
2017-09-06T14:26:23.710Z,57.14
2017-09-06T14:27:32.990Z,57.43
2017-09-06T14:28:42.592Z,57.23
2017-09-06T14:29:51.246Z,57.23
2017-09-06T14:31:01.163Z,57.33
2017-09-06T14:32:10.448Z,57.14
2017-09-06T14:33:19.443Z,57.14
2017-09-06T14:34:28.104Z,57.23
2017-09-06T14:35:36.767Z,57.14
2017-09-06T14:36:46.061Z,57.43
2017-09-06T14:37:55.038Z,57.43
2017-09-06T14:39:04.334Z,57.43
2017-09-06T14:40:13.618Z,57.4
2017-09-06T14:41:22.291Z,57.43
2017-09-06T14:42:31.113Z,57.4
2017-09-06T14:43:40.412Z,57.4
2017-09-06T14:44:49.408Z,57.2
2017-09-06T14:45:58.703Z,57.2
2017-09-06T14:47:07.386Z,57.4
2017-09-06T14:48:16.672Z,57.33
2017-09-06T14:49:25.652Z,57.4
2017-09-06T14:50:34.622Z,57.11
2017-09-06T14:51:43.926Z,57.11
2017-09-06T14:52:52.891Z,57.33
2017-09-06T14:54:02.187Z,57.01
2017-09-06T14:55:11.158Z,57.11